sensor_id;sensor_type;location;lat;lon;timestamp;P1;durP1;ratioP1;P2;durP2;ratioP2
1753;SDS011;58380;48.312;9.246;2023-12-29T08:50:41;13.43;;;7.88;;
1753;SDS011;58380;48.312;9.246;2023-12-29T08:53:42;15.48;;;10.18;;
1753;SDS011;58380;48.312;9.246;2023-12-29T08:56:43;15.30;;;9.57;;
1753;SDS011;58380;48.312;9.246;2023-12-29T08:59:43;16.10;;;9.50;;
1753;SDS011;58380;48.312;9.246;2023-12-29T09:02:44;17.02;;;9.88;;
1753;SDS011;58380;48.312;9.246;2023-12-29T09:05:46;15.82;;;9.73;;
1753;SDS011;58380;48.312;9.246;2023-12-29T09:08:47;13.93;;;9.07;;
1753;SDS011;58380;48.312;9.246;2023-12-29T09:11:47;14.25;;;7.95;;
1753;SDS011;58380;48.312;9.246;2023-12-29T09:14:48;9.13;;;6.13;;
1753;SDS011;58380;48.312;9.246;2023-12-29T09:17:48;12.25;;;7.18;;
1753;SDS011;58380;48.312;9.246;2023-12-29T09:20:49;12.60;;;7.35;;
1753;SDS011;58380;48.312;9.246;2023-12-29T09:23:49;11.90;;;7.22;;
1753;SDS011;58380;48.312;9.246;2023-12-29T09:26:50;10.45;;;6.20;;
1753;SDS011;58380;48.312;9.246;2023-12-29T09:29:52;8.98;;;5.90;;
1753;SDS011;58380;48.312;9.246;2023-12-29T09:32:52;8.75;;;5.78;;
1753;SDS011;58380;48.312;9.246;2023-12-29T09:35:53;9.07;;;5.45;;
1753;SDS011;58380;48.312;9.246;2023-12-29T09:38:53;7.68;;;4.97;;
1753;SDS011;58380;48.312;9.246;2023-12-29T09:41:55;7.90;;;5.60;;
1753;SDS011;58380;48.312;9.246;2023-12-29T09:45:00;7.97;;;5.05;;
1753;SDS011;58380;48.312;9.246;2023-12-29T09:48:07;7.07;;;5.20;;
1753;SDS011;58380;48.312;9.246;2023-12-29T09:51:10;7.20;;;5.25;;
1753;SDS011;58380;48.312;9.246;2023-12-29T09:54:11;7.47;;;5.18;;
1753;SDS011;58380;48.312;9.246;2023-12-29T09:57:13;7.93;;;5.28;;
1753;SDS011;58380;48.312;9.246;2023-12-29T10:00:15;8.82;;;5.95;;
1753;SDS011;58380;48.312;9.246;2023-12-29T10:03:17;7.22;;;5.10;;
1753;SDS011;58380;48.312;9.246;2023-12-29T10:06:19;7.07;;;5.13;;
1753;SDS011;58380;48.312;9.246;2023-12-29T10:09:24;8.88;;;6.35;;
1753;SDS011;58380;48.312;9.246;2023-12-29T10:12:25;8.93;;;5.13;;
1753;SDS011;58380;48.312;9.246;2023-12-29T10:15:36;7.57;;;5.13;;
1753;SDS011;58380;48.312;9.246;2023-12-29T10:22:38;7.80;;;4.75;;
1753;SDS011;58380;48.312;9.246;2023-12-29T10:25:51;6.25;;;4.70;;
1753;SDS011;58380;48.312;9.246;2023-12-29T10:28:52;5.72;;;4.28;;
1753;SDS011;58380;48.312;9.246;2023-12-29T10:31:53;6.25;;;3.70;;
1753;SDS011;58380;48.312;9.246;2023-12-29T10:34:59;5.05;;;3.65;;
1753;SDS011;58380;48.312;9.246;2023-12-29T10:38:10;4.95;;;3.75;;
1753;SDS011;58380;48.312;9.246;2023-12-29T10:41:15;6.68;;;3.60;;
1753;SDS011;58380;48.312;9.246;2023-12-29T10:44:18;5.32;;;3.53;;
1753;SDS011;58380;48.312;9.246;2023-12-29T10:47:18;4.40;;;2.17;;
1753;SDS011;58380;48.312;9.246;2023-12-29T10:50:19;4.10;;;2.50;;
1753;SDS011;58380;48.312;9.246;2023-12-29T10:53:19;5.15;;;2.92;;
1753;SDS011;58380;48.312;9.246;2023-12-29T10:56:20;5.95;;;3.40;;
1753;SDS011;58380;48.312;9.246;2023-12-29T10:59:20;7.45;;;3.90;;
1753;SDS011;58380;48.312;9.246;2023-12-29T11:02:21;6.00;;;3.80;;
1753;SDS011;58380;48.312;9.246;2023-12-29T11:05:24;6.53;;;4.00;;
1753;SDS011;58380;48.312;9.246;2023-12-29T11:08:26;5.03;;;3.83;;
1753;SDS011;58380;48.312;9.246;2023-12-29T11:11:26;6.65;;;4.05;;
1753;SDS011;58380;48.312;9.246;2023-12-29T11:14:27;6.13;;;4.15;;
1753;SDS011;58380;48.312;9.246;2023-12-29T11:17:29;8.93;;;4.20;;
1753;SDS011;58380;48.312;9.246;2023-12-29T11:20:32;4.93;;;3.63;;
1753;SDS011;58380;48.312;9.246;2023-12-29T11:23:35;6.40;;;4.57;;
1753;SDS011;58380;48.312;9.246;2023-12-29T11:26:36;6.13;;;3.88;;
1753;SDS011;58380;48.312;9.246;2023-12-29T11:29:38;7.30;;;4.70;;
1753;SDS011;58380;48.312;9.246;2023-12-29T11:32:45;8.18;;;5.15;;
1753;SDS011;58380;48.312;9.246;2023-12-29T11:35:54;7.70;;;5.47;;
1753;SDS011;58380;48.312;9.246;2023-12-29T11:39:10;8.10;;;5.97;;
1753;SDS011;58380;48.312;9.246;2023-12-29T11:42:21;8.57;;;5.50;;
1753;SDS011;58380;48.312;9.246;2023-12-29T11:45:31;8.27;;;6.22;;
1753;SDS011;58380;48.312;9.246;2023-12-29T11:51:58;9.88;;;6.68;;
1753;SDS011;58380;48.312;9.246;2023-12-29T11:55:11;7.53;;;5.50;;
1753;SDS011;58380;48.312;9.246;2023-12-29T11:58:24;9.00;;;6.43;;
1753;SDS011;58380;48.312;9.246;2023-12-29T12:01:34;10.93;;;6.97;;
1753;SDS011;58380;48.312;9.246;2023-12-29T12:04:44;9.13;;;6.75;;
1753;SDS011;58380;48.312;9.246;2023-12-29T12:10:45;8.02;;;5.07;;
1753;SDS011;58380;48.312;9.246;2023-12-29T12:13:46;8.50;;;5.47;;
1753;SDS011;58380;48.312;9.246;2023-12-29T12:16:48;8.23;;;5.72;;
1753;SDS011;58380;48.312;9.246;2023-12-29T12:19:50;7.25;;;4.88;;
1753;SDS011;58380;48.312;9.246;2023-12-29T12:23:01;8.02;;;5.57;;
1753;SDS011;58380;48.312;9.246;2023-12-29T12:26:11;9.85;;;5.90;;
1753;SDS011;58380;48.312;9.246;2023-12-29T12:29:13;9.75;;;4.82;;
1753;SDS011;58380;48.312;9.246;2023-12-29T12:32:15;10.00;;;5.57;;
1753;SDS011;58380;48.312;9.246;2023-12-29T12:35:16;7.78;;;5.13;;
1753;SDS011;58380;48.312;9.246;2023-12-29T12:38:16;6.65;;;4.45;;
1753;SDS011;58380;48.312;9.246;2023-12-29T12:41:22;8.45;;;4.05;;
1753;SDS011;58380;48.312;9.246;2023-12-29T12:44:29;5.57;;;4.15;;
1753;SDS011;58380;48.312;9.246;2023-12-29T12:47:34;10.10;;;6.30;;
1753;SDS011;58380;48.312;9.246;2023-12-29T12:50:44;6.45;;;4.35;;
1753;SDS011;58380;48.312;9.246;2023-12-29T12:53:45;12.07;;;6.90;;
1753;SDS011;58380;48.312;9.246;2023-12-29T12:56:47;11.77;;;6.60;;
1753;SDS011;58380;48.312;9.246;2023-12-29T12:59:48;11.70;;;7.85;;
1753;SDS011;58380;48.312;9.246;2023-12-29T13:02:51;8.57;;;5.72;;
1753;SDS011;58380;48.312;9.246;2023-12-29T13:05:51;10.48;;;6.70;;
1753;SDS011;58380;48.312;9.246;2023-12-29T13:08:53;10.05;;;5.88;;
1753;SDS011;58380;48.312;9.246;2023-12-29T13:12:13;7.53;;;4.80;;
1753;SDS011;58380;48.312;9.246;2023-12-29T13:15:15;10.90;;;7.10;;
1753;SDS011;58380;48.312;9.246;2023-12-29T13:18:15;8.82;;;5.38;;
1753;SDS011;58380;48.312;9.246;2023-12-29T13:21:17;8.00;;;5.10;;
1753;SDS011;58380;48.312;9.246;2023-12-29T13:24:18;7.60;;;5.38;;
1753;SDS011;58380;48.312;9.246;2023-12-29T13:27:18;8.50;;;4.43;;
1753;SDS011;58380;48.312;9.246;2023-12-29T13:30:19;6.25;;;4.63;;
1753;SDS011;58380;48.312;9.246;2023-12-29T13:33:27;7.50;;;4.15;;
1753;SDS011;58380;48.312;9.246;2023-12-29T13:36:53;10.88;;;4.97;;
1753;SDS011;58380;48.312;9.246;2023-12-29T13:40:06;13.32;;;8.38;;
1753;SDS011;58380;48.312;9.246;2023-12-29T13:43:34;10.38;;;6.10;;
1753;SDS011;58380;48.312;9.246;2023-12-29T13:46:42;10.70;;;6.20;;
1753;SDS011;58380;48.312;9.246;2023-12-29T13:49:43;12.00;;;7.38;;
1753;SDS011;58380;48.312;9.246;2023-12-29T13:52:44;7.35;;;4.30;;
1753;SDS011;58380;48.312;9.246;2023-12-29T13:55:44;10.63;;;6.07;;
1753;SDS011;58380;48.312;9.246;2023-12-29T13:58:44;8.48;;;5.47;;
1753;SDS011;58380;48.312;9.246;2023-12-29T14:01:52;6.95;;;3.65;;
1753;SDS011;58380;48.312;9.246;2023-12-29T14:11:34;4.32;;;2.70;;
1753;SDS011;58380;48.312;9.246;2023-12-29T14:14:35;6.25;;;3.40;;
1753;SDS011;58380;48.312;9.246;2023-12-29T14:17:36;5.38;;;3.50;;
1753;SDS011;58380;48.312;9.246;2023-12-29T14:20:41;5.28;;;2.85;;
1753;SDS011;58380;48.312;9.246;2023-12-29T14:23:42;6.40;;;3.42;;
1753;SDS011;58380;48.312;9.246;2023-12-29T14:29:51;6.72;;;4.00;;
1753;SDS011;58380;48.312;9.246;2023-12-29T14:32:52;14.02;;;9.65;;
1753;SDS011;58380;48.312;9.246;2023-12-29T14:35:52;5.85;;;2.85;;
1753;SDS011;58380;48.312;9.246;2023-12-29T14:38:52;4.25;;;2.40;;
1753;SDS011;58380;48.312;9.246;2023-12-29T14:41:53;6.10;;;2.97;;
1753;SDS011;58380;48.312;9.246;2023-12-29T14:44:53;7.50;;;3.70;;
1753;SDS011;58380;48.312;9.246;2023-12-29T14:47:54;6.90;;;3.75;;
1753;SDS011;58380;48.312;9.246;2023-12-29T14:50:54;2.95;;;1.63;;
1753;SDS011;58380;48.312;9.246;2023-12-29T14:53:57;3.00;;;1.52;;
1753;SDS011;58380;48.312;9.246;2023-12-29T14:56:57;1.67;;;1.10;;
1753;SDS011;58380;48.312;9.246;2023-12-29T14:59:58;3.50;;;1.30;;
1753;SDS011;58380;48.312;9.246;2023-12-29T15:02:58;1.35;;;0.90;;
1753;SDS011;58380;48.312;9.246;2023-12-29T15:05:59;2.45;;;1.23;;
1753;SDS011;58380;48.312;9.246;2023-12-29T15:08:59;5.63;;;1.10;;
1753;SDS011;58380;48.312;9.246;2023-12-29T15:12:00;3.35;;;1.83;;
1753;SDS011;58380;48.312;9.246;2023-12-29T15:15:00;1.75;;;1.00;;
1753;SDS011;58380;48.312;9.246;2023-12-29T15:18:02;2.75;;;1.20;;
1753;SDS011;58380;48.312;9.246;2023-12-29T15:21:03;8.27;;;1.02;;
1753;SDS011;58380;48.312;9.246;2023-12-29T15:24:04;1.83;;;1.20;;
1753;SDS011;58380;48.312;9.246;2023-12-29T15:27:05;3.25;;;2.10;;
1753;SDS011;58380;48.312;9.246;2023-12-29T15:30:06;1.90;;;1.10;;
1753;SDS011;58380;48.312;9.246;2023-12-29T15:33:08;2.65;;;1.50;;
1753;SDS011;58380;48.312;9.246;2023-12-29T15:36:12;3.33;;;1.30;;
1753;SDS011;58380;48.312;9.246;2023-12-29T15:39:14;3.20;;;1.63;;
1753;SDS011;58380;48.312;9.246;2023-12-29T15:42:15;3.35;;;1.75;;
1753;SDS011;58380;48.312;9.246;2023-12-29T15:45:16;1.88;;;1.45;;
1753;SDS011;58380;48.312;9.246;2023-12-29T15:48:19;2.90;;;1.80;;
1753;SDS011;58380;48.312;9.246;2023-12-29T15:51:19;2.70;;;1.55;;
1753;SDS011;58380;48.312;9.246;2023-12-29T15:54:21;4.18;;;2.03;;
1753;SDS011;58380;48.312;9.246;2023-12-29T15:57:21;5.18;;;2.10;;
1753;SDS011;58380;48.312;9.246;2023-12-29T16:00:22;4.03;;;2.50;;
1753;SDS011;58380;48.312;9.246;2023-12-29T16:03:23;4.25;;;2.35;;
1753;SDS011;58380;48.312;9.246;2023-12-29T16:06:24;4.13;;;2.38;;
1753;SDS011;58380;48.312;9.246;2023-12-29T16:09:26;5.22;;;2.70;;
1753;SDS011;58380;48.312;9.246;2023-12-29T16:12:26;4.18;;;2.47;;
1753;SDS011;58380;48.312;9.246;2023-12-29T16:15:27;2.50;;;1.70;;
1753;SDS011;58380;48.312;9.246;2023-12-29T16:18:27;3.10;;;1.80;;
1753;SDS011;58380;48.312;9.246;2023-12-29T16:21:27;4.63;;;2.03;;
1753;SDS011;58380;48.312;9.246;2023-12-29T16:24:29;4.05;;;2.03;;
1753;SDS011;58380;48.312;9.246;2023-12-29T16:27:29;3.55;;;2.20;;
1753;SDS011;58380;48.312;9.246;2023-12-29T16:30:30;4.35;;;2.47;;
1753;SDS011;58380;48.312;9.246;2023-12-29T16:33:30;4.75;;;2.20;;
1753;SDS011;58380;48.312;9.246;2023-12-29T16:36:34;6.45;;;2.17;;
1753;SDS011;58380;48.312;9.246;2023-12-29T16:39:34;4.03;;;2.20;;
1753;SDS011;58380;48.312;9.246;2023-12-29T16:42:34;2.58;;;1.80;;
1753;SDS011;58380;48.312;9.246;2023-12-29T16:45:40;3.65;;;1.70;;
1753;SDS011;58380;48.312;9.246;2023-12-29T16:48:41;5.63;;;4.00;;
1753;SDS011;58380;48.312;9.246;2023-12-29T16:51:41;7.40;;;4.72;;
1753;SDS011;58380;48.312;9.246;2023-12-29T16:54:42;6.40;;;4.70;;
1753;SDS011;58380;48.312;9.246;2023-12-29T16:57:43;6.20;;;4.43;;
1753;SDS011;58380;48.312;9.246;2023-12-29T17:00:43;9.32;;;5.47;;
1753;SDS011;58380;48.312;9.246;2023-12-29T17:03:44;8.02;;;4.80;;
1753;SDS011;58380;48.312;9.246;2023-12-29T17:06:46;10.23;;;6.57;;
1753;SDS011;58380;48.312;9.246;2023-12-29T17:09:46;7.97;;;5.32;;
1753;SDS011;58380;48.312;9.246;2023-12-29T17:12:46;8.95;;;4.53;;
1753;SDS011;58380;48.312;9.246;2023-12-29T17:15:47;6.72;;;4.80;;
1753;SDS011;58380;48.312;9.246;2023-12-29T17:18:47;6.10;;;3.63;;
1753;SDS011;58380;48.312;9.246;2023-12-29T17:21:48;5.20;;;3.95;;
1753;SDS011;58380;48.312;9.246;2023-12-29T17:24:48;6.45;;;3.28;;
1753;SDS011;58380;48.312;9.246;2023-12-29T17:27:48;7.18;;;3.75;;
1753;SDS011;58380;48.312;9.246;2023-12-29T17:30:49;7.13;;;4.45;;
1753;SDS011;58380;48.312;9.246;2023-12-29T17:33:50;6.57;;;4.10;;
1753;SDS011;58380;48.312;9.246;2023-12-29T17:36:50;7.57;;;4.80;;
1753;SDS011;58380;48.312;9.246;2023-12-29T17:39:50;7.30;;;5.13;;
1753;SDS011;58380;48.312;9.246;2023-12-29T17:42:51;7.85;;;4.85;;
1753;SDS011;58380;48.312;9.246;2023-12-29T17:45:51;5.05;;;4.00;;
1753;SDS011;58380;48.312;9.246;2023-12-29T17:48:51;43.25;;;22.00;;
1753;SDS011;58380;48.312;9.246;2023-12-29T17:51:52;27.60;;;13.32;;
1753;SDS011;58380;48.312;9.246;2023-12-29T17:54:52;31.00;;;17.15;;
1753;SDS011;58380;48.312;9.246;2023-12-29T17:57:53;68.68;;;34.10;;
1753;SDS011;58380;48.312;9.246;2023-12-29T18:00:53;17.67;;;11.23;;
1753;SDS011;58380;48.312;9.246;2023-12-29T18:03:54;8.55;;;5.22;;
1753;SDS011;58380;48.312;9.246;2023-12-29T18:06:54;9.70;;;5.30;;
1753;SDS011;58380;48.312;9.246;2023-12-29T18:09:55;8.20;;;6.05;;
1753;SDS011;58380;48.312;9.246;2023-12-29T18:12:55;7.82;;;4.88;;
1753;SDS011;58380;48.312;9.246;2023-12-29T18:15:58;5.90;;;4.20;;
1753;SDS011;58380;48.312;9.246;2023-12-29T18:19:02;8.15;;;4.95;;
1753;SDS011;58380;48.312;9.246;2023-12-29T18:22:03;9.40;;;6.53;;
1753;SDS011;58380;48.312;9.246;2023-12-29T18:25:04;6.22;;;3.60;;
1753;SDS011;58380;48.312;9.246;2023-12-29T18:28:05;8.75;;;6.20;;
1753;SDS011;58380;48.312;9.246;2023-12-29T18:31:06;6.85;;;4.88;;
1753;SDS011;58380;48.312;9.246;2023-12-29T18:34:06;7.03;;;4.30;;
1753;SDS011;58380;48.312;9.246;2023-12-29T18:37:06;6.80;;;4.90;;
1753;SDS011;58380;48.312;9.246;2023-12-29T18:40:07;12.70;;;8.15;;
1753;SDS011;58380;48.312;9.246;2023-12-29T18:43:08;12.95;;;8.82;;
1753;SDS011;58380;48.312;9.246;2023-12-29T18:46:08;7.80;;;5.20;;
1753;SDS011;58380;48.312;9.246;2023-12-29T18:49:13;10.90;;;6.50;;
1753;SDS011;58380;48.312;9.246;2023-12-29T18:52:15;11.93;;;8.07;;
1753;SDS011;58380;48.312;9.246;2023-12-29T18:55:16;9.43;;;5.88;;
1753;SDS011;58380;48.312;9.246;2023-12-29T18:58:16;7.45;;;4.82;;
1753;SDS011;58380;48.312;9.246;2023-12-29T19:01:17;11.68;;;8.35;;
1753;SDS011;58380;48.312;9.246;2023-12-29T19:04:17;12.00;;;7.93;;
1753;SDS011;58380;48.312;9.246;2023-12-29T19:07:18;15.55;;;9.27;;
1753;SDS011;58380;48.312;9.246;2023-12-29T19:10:18;13.02;;;7.25;;
1753;SDS011;58380;48.312;9.246;2023-12-29T19:13:20;5.70;;;3.65;;
1753;SDS011;58380;48.312;9.246;2023-12-29T19:16:21;4.40;;;2.30;;
1753;SDS011;58380;48.312;9.246;2023-12-29T19:19:22;3.05;;;2.03;;
1753;SDS011;58380;48.312;9.246;2023-12-29T19:22:23;3.25;;;1.65;;
1753;SDS011;58380;48.312;9.246;2023-12-29T19:25:24;2.80;;;1.15;;
1753;SDS011;58380;48.312;9.246;2023-12-29T19:28:24;1.88;;;1.00;;
1753;SDS011;58380;48.312;9.246;2023-12-29T19:31:25;1.75;;;0.80;;
1753;SDS011;58380;48.312;9.246;2023-12-29T19:34:26;1.17;;;0.80;;
1753;SDS011;58380;48.312;9.246;2023-12-29T19:37:26;3.10;;;0.85;;
1753;SDS011;58380;48.312;9.246;2023-12-29T19:40:27;3.33;;;1.48;;
1753;SDS011;58380;48.312;9.246;2023-12-29T19:43:27;2.95;;;1.85;;
1753;SDS011;58380;48.312;9.246;2023-12-29T19:46:28;3.65;;;1.90;;
1753;SDS011;58380;48.312;9.246;2023-12-29T19:49:29;2.85;;;1.30;;
1753;SDS011;58380;48.312;9.246;2023-12-29T19:52:29;4.43;;;1.08;;
1753;SDS011;58380;48.312;9.246;2023-12-29T19:55:29;2.65;;;1.50;;
1753;SDS011;58380;48.312;9.246;2023-12-29T19:58:30;5.10;;;1.42;;
1753;SDS011;58380;48.312;9.246;2023-12-29T20:01:31;1.83;;;1.17;;
1753;SDS011;58380;48.312;9.246;2023-12-29T20:04:34;3.15;;;1.33;;
1753;SDS011;58380;48.312;9.246;2023-12-29T20:07:34;2.38;;;1.33;;
1753;SDS011;58380;48.312;9.246;2023-12-29T20:10:35;3.70;;;1.55;;
1753;SDS011;58380;48.312;9.246;2023-12-29T20:13:37;3.25;;;1.20;;
1753;SDS011;58380;48.312;9.246;2023-12-29T20:16:37;3.03;;;1.40;;
1753;SDS011;58380;48.312;9.246;2023-12-29T20:19:38;2.15;;;1.08;;
1753;SDS011;58380;48.312;9.246;2023-12-29T20:22:38;2.25;;;0.95;;
1753;SDS011;58380;48.312;9.246;2023-12-29T20:25:39;2.47;;;1.30;;
1753;SDS011;58380;48.312;9.246;2023-12-29T20:28:42;2.92;;;1.33;;
1753;SDS011;58380;48.312;9.246;2023-12-29T20:31:42;2.60;;;1.42;;
1753;SDS011;58380;48.312;9.246;2023-12-29T20:34:43;3.08;;;1.55;;
1753;SDS011;58380;48.312;9.246;2023-12-29T20:37:43;4.03;;;1.52;;
1753;SDS011;58380;48.312;9.246;2023-12-29T20:40:44;4.90;;;2.05;;
1753;SDS011;58380;48.312;9.246;2023-12-29T20:43:44;2.67;;;1.10;;
1753;SDS011;58380;48.312;9.246;2023-12-29T20:46:50;2.47;;;1.20;;
1753;SDS011;58380;48.312;9.246;2023-12-29T20:49:51;2.45;;;1.38;;
1753;SDS011;58380;48.312;9.246;2023-12-29T20:52:53;5.22;;;3.03;;
1753;SDS011;58380;48.312;9.246;2023-12-29T20:55:53;7.70;;;4.20;;
1753;SDS011;58380;48.312;9.246;2023-12-29T20:58:53;20.23;;;11.23;;
1753;SDS011;58380;48.312;9.246;2023-12-29T21:01:54;16.73;;;8.95;;
1753;SDS011;58380;48.312;9.246;2023-12-29T21:04:54;5.82;;;2.33;;
1753;SDS011;58380;48.312;9.246;2023-12-29T21:07:55;3.65;;;1.65;;
1753;SDS011;58380;48.312;9.246;2023-12-29T21:10:55;2.42;;;1.70;;
1753;SDS011;58380;48.312;9.246;2023-12-29T21:13:55;4.13;;;2.03;;
1753;SDS011;58380;48.312;9.246;2023-12-29T21:16:56;3.40;;;2.05;;
1753;SDS011;58380;48.312;9.246;2023-12-29T21:19:56;3.08;;;1.67;;
1753;SDS011;58380;48.312;9.246;2023-12-29T21:22:57;3.67;;;2.00;;
1753;SDS011;58380;48.312;9.246;2023-12-29T21:25:57;9.30;;;4.43;;
1753;SDS011;58380;48.312;9.246;2023-12-29T21:28:58;5.28;;;2.22;;
1753;SDS011;58380;48.312;9.246;2023-12-29T21:32:00;3.95;;;2.15;;
1753;SDS011;58380;48.312;9.246;2023-12-29T21:35:00;2.08;;;1.00;;
1753;SDS011;58380;48.312;9.246;2023-12-29T21:38:01;2.38;;;1.02;;
1753;SDS011;58380;48.312;9.246;2023-12-29T21:41:02;4.47;;;1.67;;
1753;SDS011;58380;48.312;9.246;2023-12-29T21:44:03;4.13;;;1.50;;
1753;SDS011;58380;48.312;9.246;2023-12-29T21:47:04;3.70;;;1.45;;
1753;SDS011;58380;48.312;9.246;2023-12-29T21:50:05;3.80;;;2.40;;
1753;SDS011;58380;48.312;9.246;2023-12-29T21:53:06;3.90;;;1.90;;
1753;SDS011;58380;48.312;9.246;2023-12-29T21:56:06;5.72;;;3.45;;
1753;SDS011;58380;48.312;9.246;2023-12-29T21:59:07;4.90;;;2.53;;
1753;SDS011;58380;48.312;9.246;2023-12-29T22:02:09;5.25;;;3.88;;
1753;SDS011;58380;48.312;9.246;2023-12-29T22:05:09;8.35;;;5.10;;
1753;SDS011;58380;48.312;9.246;2023-12-29T22:08:10;8.20;;;4.80;;
1753;SDS011;58380;48.312;9.246;2023-12-29T22:11:11;10.57;;;4.90;;
1753;SDS011;58380;48.312;9.246;2023-12-29T22:14:11;12.50;;;5.90;;
1753;SDS011;58380;48.312;9.246;2023-12-29T22:17:11;14.63;;;7.93;;
1753;SDS011;58380;48.312;9.246;2023-12-29T22:20:12;13.10;;;7.57;;
1753;SDS011;58380;48.312;9.246;2023-12-29T22:23:12;15.68;;;8.70;;
1753;SDS011;58380;48.312;9.246;2023-12-29T22:26:13;17.83;;;8.18;;
1753;SDS011;58380;48.312;9.246;2023-12-29T22:29:15;15.40;;;7.35;;
